Terminal Aerodrome Forecast
Issued by NWS Raleigh/Durham, NC

Home | Current Version | Previous Version | Text Only | Print | Product List | Glossary On
Versions: 1 2 3 4 5 6 7 8 9 10 11 12 13 14 15 16 17 18 19 20 21 22 23 24 25 26 27 28 29 30 31 32 33 34 35 36 37 38 39 40 41 42 43 44 45 46 47 48 49 50
000
FTUS42 KRAH 201126
TAFGSO
TAF
KGSO 201126Z 2012/2112 27008G14KT P6SM BKN060
      TEMPO 2012/2014 BKN020 OVC050
     FM201400 30013G27KT P6SM SCT100
     FM201700 32018G32KT P6SM FEW200
     FM210200 33012G22KT P6SM SKC=

USA.gov is the U.S. government's official web portal to all federal, state and local government web resources and services.